sensor_id;sensor_type;location;lat;lon;timestamp;temperature;humidity
10278;DHT22;5184;51.376;7.148;2022-10-16T00:00:13;13.30;99.90
10278;DHT22;5184;51.376;7.148;2022-10-16T00:02:39;13.30;99.90
10278;DHT22;5184;51.376;7.148;2022-10-16T00:05:06;13.30;99.90
10278;DHT22;5184;51.376;7.148;2022-10-16T00:07:33;13.30;99.90
10278;DHT22;5184;51.376;7.148;2022-10-16T00:09:59;13.30;99.90
10278;DHT22;5184;51.376;7.148;2022-10-16T00:12:27;13.20;99.90
10278;DHT22;5184;51.376;7.148;2022-10-16T00:14:54;13.20;99.90
10278;DHT22;5184;51.376;7.148;2022-10-16T00:17:21;13.20;99.90
10278;DHT22;5184;51.376;7.148;2022-10-16T00:19:47;13.20;99.90
10278;DHT22;5184;51.376;7.148;2022-10-16T00:22:14;13.20;99.90
10278;DHT22;5184;51.376;7.148;2022-10-16T00:24:40;13.20;99.90
10278;DHT22;5184;51.376;7.148;2022-10-16T00:27:07;13.30;99.90
10278;DHT22;5184;51.376;7.148;2022-10-16T00:29:34;13.30;99.90
10278;DHT22;5184;51.376;7.148;2022-10-16T00:32:02;13.30;99.90
10278;DHT22;5184;51.376;7.148;2022-10-16T00:34:28;13.30;99.90
10278;DHT22;5184;51.376;7.148;2022-10-16T00:36:55;13.30;99.90
10278;DHT22;5184;51.376;7.148;2022-10-16T00:39:21;13.20;99.90
10278;DHT22;5184;51.376;7.148;2022-10-16T00:41:48;13.20;99.90
10278;DHT22;5184;51.376;7.148;2022-10-16T00:46:53;13.20;99.90
10278;DHT22;5184;51.376;7.148;2022-10-16T00:49:20;13.30;99.90
10278;DHT22;5184;51.376;7.148;2022-10-16T00:51:47;13.30;99.90
10278;DHT22;5184;51.376;7.148;2022-10-16T00:54:26;13.30;99.90
10278;DHT22;5184;51.376;7.148;2022-10-16T00:56:51;13.30;99.90
10278;DHT22;5184;51.376;7.148;2022-10-16T00:59:36;13.20;99.90
10278;DHT22;5184;51.376;7.148;2022-10-16T01:02:01;13.20;99.90
10278;DHT22;5184;51.376;7.148;2022-10-16T01:04:30;13.20;99.90
10278;DHT22;5184;51.376;7.148;2022-10-16T01:09:47;13.20;99.90
10278;DHT22;5184;51.376;7.148;2022-10-16T01:12:17;13.20;99.90
10278;DHT22;5184;51.376;7.148;2022-10-16T01:15:06;13.20;99.90
10278;DHT22;5184;51.376;7.148;2022-10-16T01:17:34;13.20;99.90
10278;DHT22;5184;51.376;7.148;2022-10-16T01:22:44;13.30;99.90
10278;DHT22;5184;51.376;7.148;2022-10-16T01:25:09;13.30;99.90
10278;DHT22;5184;51.376;7.148;2022-10-16T01:27:36;13.20;99.90
10278;DHT22;5184;51.376;7.148;2022-10-16T01:30:08;13.20;99.90
10278;DHT22;5184;51.376;7.148;2022-10-16T01:32:37;13.20;99.90
10278;DHT22;5184;51.376;7.148;2022-10-16T01:35:14;13.20;99.90
10278;DHT22;5184;51.376;7.148;2022-10-16T01:37:40;13.20;99.90
10278;DHT22;5184;51.376;7.148;2022-10-16T01:40:08;13.10;99.90
10278;DHT22;5184;51.376;7.148;2022-10-16T01:42:35;13.10;99.90
10278;DHT22;5184;51.376;7.148;2022-10-16T01:45:01;13.10;99.90
10278;DHT22;5184;51.376;7.148;2022-10-16T01:47:27;13.10;99.90
10278;DHT22;5184;51.376;7.148;2022-10-16T01:49:54;13.10;99.90
10278;DHT22;5184;51.376;7.148;2022-10-16T01:52:21;13.10;99.90
10278;DHT22;5184;51.376;7.148;2022-10-16T01:54:48;13.10;99.90
10278;DHT22;5184;51.376;7.148;2022-10-16T01:57:15;13.00;99.90
10278;DHT22;5184;51.376;7.148;2022-10-16T01:59:44;13.00;99.90
10278;DHT22;5184;51.376;7.148;2022-10-16T02:02:10;13.00;99.90
10278;DHT22;5184;51.376;7.148;2022-10-16T02:04:38;12.90;99.90
10278;DHT22;5184;51.376;7.148;2022-10-16T02:07:04;13.30;99.90
10278;DHT22;5184;51.376;7.148;2022-10-16T02:09:32;13.00;99.90
10278;DHT22;5184;51.376;7.148;2022-10-16T02:11:58;12.90;99.90
10278;DHT22;5184;51.376;7.148;2022-10-16T02:14:24;12.90;99.90
10278;DHT22;5184;51.376;7.148;2022-10-16T02:16:51;12.90;99.90
10278;DHT22;5184;51.376;7.148;2022-10-16T02:19:18;13.00;99.90
10278;DHT22;5184;51.376;7.148;2022-10-16T02:21:49;12.90;99.90
10278;DHT22;5184;51.376;7.148;2022-10-16T02:24:16;12.90;99.90
10278;DHT22;5184;51.376;7.148;2022-10-16T02:26:41;12.90;99.90
10278;DHT22;5184;51.376;7.148;2022-10-16T02:29:08;12.90;99.90
10278;DHT22;5184;51.376;7.148;2022-10-16T02:31:35;12.90;99.90
10278;DHT22;5184;51.376;7.148;2022-10-16T02:34:02;12.80;99.90
10278;DHT22;5184;51.376;7.148;2022-10-16T02:36:29;12.80;99.90
10278;DHT22;5184;51.376;7.148;2022-10-16T02:38:56;12.80;99.90
10278;DHT22;5184;51.376;7.148;2022-10-16T02:41:23;12.80;99.90
10278;DHT22;5184;51.376;7.148;2022-10-16T02:43:49;12.80;99.90
10278;DHT22;5184;51.376;7.148;2022-10-16T02:46:16;12.70;99.90
10278;DHT22;5184;51.376;7.148;2022-10-16T02:48:43;12.70;99.90
10278;DHT22;5184;51.376;7.148;2022-10-16T02:51:09;12.70;99.90
10278;DHT22;5184;51.376;7.148;2022-10-16T02:53:37;12.70;99.90
10278;DHT22;5184;51.376;7.148;2022-10-16T02:56:04;12.70;99.90
10278;DHT22;5184;51.376;7.148;2022-10-16T02:58:31;12.70;99.90
10278;DHT22;5184;51.376;7.148;2022-10-16T03:00:57;12.70;99.90
10278;DHT22;5184;51.376;7.148;2022-10-16T03:03:24;12.70;99.90
10278;DHT22;5184;51.376;7.148;2022-10-16T03:05:50;12.80;99.90
10278;DHT22;5184;51.376;7.148;2022-10-16T03:08:17;12.90;99.90
10278;DHT22;5184;51.376;7.148;2022-10-16T03:10:44;13.00;99.90
10278;DHT22;5184;51.376;7.148;2022-10-16T03:13:12;13.00;99.90
10278;DHT22;5184;51.376;7.148;2022-10-16T03:15:39;13.00;99.90
10278;DHT22;5184;51.376;7.148;2022-10-16T03:18:06;13.00;99.90
10278;DHT22;5184;51.376;7.148;2022-10-16T03:20:32;13.00;99.90
10278;DHT22;5184;51.376;7.148;2022-10-16T03:22:59;13.00;81.80
10278;DHT22;5184;51.376;7.148;2022-10-16T03:25:25;13.10;28.30
10278;DHT22;5184;51.376;7.148;2022-10-16T03:27:52;13.10;1.00
10278;DHT22;5184;51.376;7.148;2022-10-16T03:30:19;13.10;1.00
10278;DHT22;5184;51.376;7.148;2022-10-16T03:32:47;13.10;1.00
10278;DHT22;5184;51.376;7.148;2022-10-16T03:35:14;13.10;1.00
10278;DHT22;5184;51.376;7.148;2022-10-16T03:37:41;13.10;1.00
10278;DHT22;5184;51.376;7.148;2022-10-16T03:40:07;13.10;1.00
10278;DHT22;5184;51.376;7.148;2022-10-16T03:42:34;13.10;1.00
10278;DHT22;5184;51.376;7.148;2022-10-16T03:45:01;13.10;1.00
10278;DHT22;5184;51.376;7.148;2022-10-16T03:47:28;13.10;1.00
10278;DHT22;5184;51.376;7.148;2022-10-16T03:49:55;13.10;1.00
10278;DHT22;5184;51.376;7.148;2022-10-16T03:52:21;13.10;1.00
10278;DHT22;5184;51.376;7.148;2022-10-16T03:54:48;13.10;1.00
10278;DHT22;5184;51.376;7.148;2022-10-16T03:57:14;13.10;99.90
10278;DHT22;5184;51.376;7.148;2022-10-16T03:59:42;13.10;99.90
10278;DHT22;5184;51.376;7.148;2022-10-16T04:02:09;13.00;99.90
10278;DHT22;5184;51.376;7.148;2022-10-16T04:04:37;13.00;99.90
10278;DHT22;5184;51.376;7.148;2022-10-16T04:07:03;13.00;99.90
10278;DHT22;5184;51.376;7.148;2022-10-16T04:09:30;13.00;99.90
10278;DHT22;5184;51.376;7.148;2022-10-16T04:11:56;13.00;96.40
10278;DHT22;5184;51.376;7.148;2022-10-16T04:14:23;13.00;85.60
10278;DHT22;5184;51.376;7.148;2022-10-16T04:16:49;12.90;99.90
10278;DHT22;5184;51.376;7.148;2022-10-16T04:19:17;12.90;88.70
10278;DHT22;5184;51.376;7.148;2022-10-16T04:21:44;12.90;99.90
10278;DHT22;5184;51.376;7.148;2022-10-16T04:24:11;12.90;99.90
10278;DHT22;5184;51.376;7.148;2022-10-16T04:26:37;12.80;99.90
10278;DHT22;5184;51.376;7.148;2022-10-16T04:29:04;12.80;99.90
10278;DHT22;5184;51.376;7.148;2022-10-16T04:31:31;12.80;99.90
10278;DHT22;5184;51.376;7.148;2022-10-16T04:33:57;12.70;99.90
10278;DHT22;5184;51.376;7.148;2022-10-16T04:36:25;12.80;99.90
10278;DHT22;5184;51.376;7.148;2022-10-16T04:38:52;12.80;99.90
10278;DHT22;5184;51.376;7.148;2022-10-16T04:41:18;12.70;99.90
10278;DHT22;5184;51.376;7.148;2022-10-16T04:43:45;12.80;99.90
10278;DHT22;5184;51.376;7.148;2022-10-16T04:46:12;12.70;99.90
10278;DHT22;5184;51.376;7.148;2022-10-16T04:48:38;12.70;99.90
10278;DHT22;5184;51.376;7.148;2022-10-16T04:51:05;12.70;99.90
10278;DHT22;5184;51.376;7.148;2022-10-16T04:53:32;12.70;1.00
10278;DHT22;5184;51.376;7.148;2022-10-16T04:56:00;12.70;1.00
10278;DHT22;5184;51.376;7.148;2022-10-16T04:58:27;12.70;1.00
10278;DHT22;5184;51.376;7.148;2022-10-16T05:00:54;12.70;1.00
10278;DHT22;5184;51.376;7.148;2022-10-16T05:03:22;12.70;1.00
10278;DHT22;5184;51.376;7.148;2022-10-16T05:05:49;12.70;1.00
10278;DHT22;5184;51.376;7.148;2022-10-16T05:08:16;12.70;1.00
10278;DHT22;5184;51.376;7.148;2022-10-16T05:10:43;12.70;1.00
10278;DHT22;5184;51.376;7.148;2022-10-16T05:13:10;12.70;1.00
10278;DHT22;5184;51.376;7.148;2022-10-16T05:15:36;12.70;1.00
10278;DHT22;5184;51.376;7.148;2022-10-16T05:18:03;12.70;1.00
10278;DHT22;5184;51.376;7.148;2022-10-16T05:20:29;12.70;1.00
10278;DHT22;5184;51.376;7.148;2022-10-16T05:22:56;12.70;1.00
10278;DHT22;5184;51.376;7.148;2022-10-16T05:25:23;12.70;1.00
10278;DHT22;5184;51.376;7.148;2022-10-16T05:27:50;12.70;1.00
10278;DHT22;5184;51.376;7.148;2022-10-16T05:30:17;12.70;1.00
10278;DHT22;5184;51.376;7.148;2022-10-16T05:32:46;12.70;1.00
10278;DHT22;5184;51.376;7.148;2022-10-16T05:35:13;12.70;1.00
10278;DHT22;5184;51.376;7.148;2022-10-16T05:37:39;12.70;1.00
10278;DHT22;5184;51.376;7.148;2022-10-16T05:40:07;12.70;1.00
10278;DHT22;5184;51.376;7.148;2022-10-16T05:42:34;12.60;1.00
10278;DHT22;5184;51.376;7.148;2022-10-16T05:45:02;12.60;1.00
10278;DHT22;5184;51.376;7.148;2022-10-16T05:47:29;12.70;1.00
10278;DHT22;5184;51.376;7.148;2022-10-16T05:49:57;11.10;1.00
10278;DHT22;5184;51.376;7.148;2022-10-16T05:52:24;12.60;10.50
10278;DHT22;5184;51.376;7.148;2022-10-16T05:54:51;12.60;1.00
10278;DHT22;5184;51.376;7.148;2022-10-16T05:57:19;12.60;19.60
10278;DHT22;5184;51.376;7.148;2022-10-16T05:59:46;12.60;22.70
10278;DHT22;5184;51.376;7.148;2022-10-16T06:02:13;12.60;22.30
10278;DHT22;5184;51.376;7.148;2022-10-16T06:04:39;12.60;95.70
10278;DHT22;5184;51.376;7.148;2022-10-16T06:07:06;12.60;78.60
10278;DHT22;5184;51.376;7.148;2022-10-16T06:09:33;12.60;88.80
10278;DHT22;5184;51.376;7.148;2022-10-16T06:12:00;12.60;93.00
10278;DHT22;5184;51.376;7.148;2022-10-16T06:14:28;12.60;89.60
10278;DHT22;5184;51.376;7.148;2022-10-16T06:16:55;12.60;80.90
10278;DHT22;5184;51.376;7.148;2022-10-16T06:19:22;12.60;79.70
10278;DHT22;5184;51.376;7.148;2022-10-16T06:21:48;12.60;95.60
10278;DHT22;5184;51.376;7.148;2022-10-16T06:24:15;12.60;99.90
10278;DHT22;5184;51.376;7.148;2022-10-16T06:26:42;12.60;99.90
10278;DHT22;5184;51.376;7.148;2022-10-16T06:29:08;12.60;96.20
10278;DHT22;5184;51.376;7.148;2022-10-16T06:31:36;12.60;99.90
10278;DHT22;5184;51.376;7.148;2022-10-16T06:34:03;12.60;99.90
10278;DHT22;5184;51.376;7.148;2022-10-16T06:36:30;12.60;99.90
10278;DHT22;5184;51.376;7.148;2022-10-16T06:38:57;12.60;99.90
10278;DHT22;5184;51.376;7.148;2022-10-16T06:41:24;12.70;99.90
10278;DHT22;5184;51.376;7.148;2022-10-16T06:43:51;12.60;99.90
10278;DHT22;5184;51.376;7.148;2022-10-16T06:46:19;12.70;99.90
10278;DHT22;5184;51.376;7.148;2022-10-16T06:48:44;12.80;99.90
10278;DHT22;5184;51.376;7.148;2022-10-16T06:51:12;12.80;99.90
10278;DHT22;5184;51.376;7.148;2022-10-16T06:53:40;12.90;58.20
10278;DHT22;5184;51.376;7.148;2022-10-16T06:56:09;13.00;20.70
10278;DHT22;5184;51.376;7.148;2022-10-16T06:58:35;13.00;20.10
10278;DHT22;5184;51.376;7.148;2022-10-16T07:01:03;13.10;1.00
10278;DHT22;5184;51.376;7.148;2022-10-16T07:03:29;13.10;1.00
10278;DHT22;5184;51.376;7.148;2022-10-16T07:05:56;13.10;1.00
10278;DHT22;5184;51.376;7.148;2022-10-16T07:08:23;13.20;1.00
10278;DHT22;5184;51.376;7.148;2022-10-16T07:10:57;13.20;1.00
10278;DHT22;5184;51.376;7.148;2022-10-16T07:13:19;13.20;1.00
10278;DHT22;5184;51.376;7.148;2022-10-16T07:15:46;13.20;1.00
10278;DHT22;5184;51.376;7.148;2022-10-16T07:18:13;13.30;1.00
10278;DHT22;5184;51.376;7.148;2022-10-16T07:20:39;13.30;1.00
10278;DHT22;5184;51.376;7.148;2022-10-16T07:23:06;13.30;1.00
10278;DHT22;5184;51.376;7.148;2022-10-16T07:25:33;13.40;1.00
10278;DHT22;5184;51.376;7.148;2022-10-16T07:28:00;13.40;1.00
10278;DHT22;5184;51.376;7.148;2022-10-16T07:30:26;13.30;1.00
10278;DHT22;5184;51.376;7.148;2022-10-16T07:32:54;13.40;1.00
10278;DHT22;5184;51.376;7.148;2022-10-16T07:35:21;13.40;1.00
10278;DHT22;5184;51.376;7.148;2022-10-16T07:37:48;13.50;1.00
10278;DHT22;5184;51.376;7.148;2022-10-16T07:40:16;13.50;1.00
10278;DHT22;5184;51.376;7.148;2022-10-16T07:42:43;13.60;1.00
10278;DHT22;5184;51.376;7.148;2022-10-16T07:45:11;13.50;1.00
10278;DHT22;5184;51.376;7.148;2022-10-16T07:47:37;13.60;1.00
10278;DHT22;5184;51.376;7.148;2022-10-16T07:50:04;13.50;1.00
10278;DHT22;5184;51.376;7.148;2022-10-16T07:52:30;13.60;99.90
10278;DHT22;5184;51.376;7.148;2022-10-16T07:54:57;13.70;99.90
10278;DHT22;5184;51.376;7.148;2022-10-16T07:57:24;13.70;99.90
10278;DHT22;5184;51.376;7.148;2022-10-16T07:59:50;13.70;99.90
10278;DHT22;5184;51.376;7.148;2022-10-16T08:02:18;13.80;1.00
10278;DHT22;5184;51.376;7.148;2022-10-16T08:04:46;13.80;1.00
10278;DHT22;5184;51.376;7.148;2022-10-16T08:07:12;13.90;1.00
10278;DHT22;5184;51.376;7.148;2022-10-16T08:09:40;14.00;1.00
10278;DHT22;5184;51.376;7.148;2022-10-16T08:12:07;14.00;1.00
10278;DHT22;5184;51.376;7.148;2022-10-16T08:14:33;14.00;1.00
10278;DHT22;5184;51.376;7.148;2022-10-16T08:16:59;14.10;99.90
10278;DHT22;5184;51.376;7.148;2022-10-16T08:19:26;14.10;99.90
10278;DHT22;5184;51.376;7.148;2022-10-16T08:21:53;14.10;99.90
10278;DHT22;5184;51.376;7.148;2022-10-16T08:24:20;14.20;1.00
10278;DHT22;5184;51.376;7.148;2022-10-16T08:26:47;14.40;1.00
10278;DHT22;5184;51.376;7.148;2022-10-16T08:29:15;14.50;99.90
10278;DHT22;5184;51.376;7.148;2022-10-16T08:31:42;14.50;99.90
10278;DHT22;5184;51.376;7.148;2022-10-16T08:34:09;14.50;99.90
10278;DHT22;5184;51.376;7.148;2022-10-16T08:36:35;14.60;1.00
10278;DHT22;5184;51.376;7.148;2022-10-16T08:39:02;14.60;99.90
10278;DHT22;5184;51.376;7.148;2022-10-16T08:41:41;14.70;99.90
10278;DHT22;5184;51.376;7.148;2022-10-16T08:44:07;14.80;1.00
10278;DHT22;5184;51.376;7.148;2022-10-16T08:46:51;14.80;99.90
10278;DHT22;5184;51.376;7.148;2022-10-16T08:49:14;14.80;99.90
10278;DHT22;5184;51.376;7.148;2022-10-16T08:51:41;14.90;99.90
10278;DHT22;5184;51.376;7.148;2022-10-16T08:54:20;15.00;1.00
10278;DHT22;5184;51.376;7.148;2022-10-16T08:56:42;15.00;1.00
10278;DHT22;5184;51.376;7.148;2022-10-16T08:59:10;15.10;1.00
10278;DHT22;5184;51.376;7.148;2022-10-16T09:01:38;15.10;1.00
10278;DHT22;5184;51.376;7.148;2022-10-16T09:04:42;15.20;1.00
10278;DHT22;5184;51.376;7.148;2022-10-16T09:07:29;15.20;1.00
10278;DHT22;5184;51.376;7.148;2022-10-16T09:12:52;15.40;99.90
10278;DHT22;5184;51.376;7.148;2022-10-16T09:15:22;15.30;99.90
10278;DHT22;5184;51.376;7.148;2022-10-16T09:17:52;15.40;99.90
10278;DHT22;5184;51.376;7.148;2022-10-16T09:20:26;15.40;99.90
10278;DHT22;5184;51.376;7.148;2022-10-16T09:22:50;15.50;99.90
10278;DHT22;5184;51.376;7.148;2022-10-16T09:25:17;15.50;99.90
10278;DHT22;5184;51.376;7.148;2022-10-16T09:27:44;15.60;99.90
10278;DHT22;5184;51.376;7.148;2022-10-16T09:30:13;15.80;12.70
10278;DHT22;5184;51.376;7.148;2022-10-16T09:32:39;15.80;5.10
10278;DHT22;5184;51.376;7.148;2022-10-16T09:35:11;15.90;1.00
10278;DHT22;5184;51.376;7.148;2022-10-16T09:37:33;15.90;1.00
10278;DHT22;5184;51.376;7.148;2022-10-16T09:40:00;16.00;1.00
10278;DHT22;5184;51.376;7.148;2022-10-16T09:42:30;16.00;1.00
10278;DHT22;5184;51.376;7.148;2022-10-16T09:44:54;16.10;1.00
10278;DHT22;5184;51.376;7.148;2022-10-16T09:47:25;16.20;1.00
10278;DHT22;5184;51.376;7.148;2022-10-16T09:49:52;16.20;99.90
10278;DHT22;5184;51.376;7.148;2022-10-16T09:52:18;16.30;99.90
10278;DHT22;5184;51.376;7.148;2022-10-16T09:54:54;16.20;99.90
10278;DHT22;5184;51.376;7.148;2022-10-16T09:57:20;16.30;92.10
10278;DHT22;5184;51.376;7.148;2022-10-16T09:59:49;16.30;79.40
10278;DHT22;5184;51.376;7.148;2022-10-16T10:02:15;16.40;99.90
10278;DHT22;5184;51.376;7.148;2022-10-16T10:04:43;16.40;99.90
10278;DHT22;5184;51.376;7.148;2022-10-16T10:07:15;16.40;99.90
10278;DHT22;5184;51.376;7.148;2022-10-16T10:09:37;16.50;1.00
10278;DHT22;5184;51.376;7.148;2022-10-16T10:12:05;16.60;1.00
10278;DHT22;5184;51.376;7.148;2022-10-16T10:14:35;16.60;1.00
10278;DHT22;5184;51.376;7.148;2022-10-16T10:17:09;16.60;1.00
10278;DHT22;5184;51.376;7.148;2022-10-16T10:19:50;16.70;99.90
10278;DHT22;5184;51.376;7.148;2022-10-16T10:22:17;16.70;99.90
10278;DHT22;5184;51.376;7.148;2022-10-16T10:24:44;16.80;99.90
10278;DHT22;5184;51.376;7.148;2022-10-16T10:27:14;16.70;99.90
10278;DHT22;5184;51.376;7.148;2022-10-16T10:29:49;16.70;99.90
10278;DHT22;5184;51.376;7.148;2022-10-16T10:32:36;16.70;99.90
10278;DHT22;5184;51.376;7.148;2022-10-16T10:37:47;16.90;99.90
10278;DHT22;5184;51.376;7.148;2022-10-16T10:42:57;17.00;99.90
10278;DHT22;5184;51.376;7.148;2022-10-16T10:45:26;17.00;99.90
10278;DHT22;5184;51.376;7.148;2022-10-16T10:50:41;17.30;99.90
10278;DHT22;5184;51.376;7.148;2022-10-16T10:53:11;17.30;1.00
10278;DHT22;5184;51.376;7.148;2022-10-16T10:55:39;17.30;1.00
10278;DHT22;5184;51.376;7.148;2022-10-16T11:00:43;17.30;14.80
10278;DHT22;5184;51.376;7.148;2022-10-16T11:05:57;17.20;1.00
10278;DHT22;5184;51.376;7.148;2022-10-16T11:08:29;17.20;1.00
10278;DHT22;5184;51.376;7.148;2022-10-16T11:10:58;17.30;1.00
10278;DHT22;5184;51.376;7.148;2022-10-16T11:13:33;17.40;1.00
10278;DHT22;5184;51.376;7.148;2022-10-16T11:15:58;17.40;1.00
10278;DHT22;5184;51.376;7.148;2022-10-16T11:18:30;17.40;14.40
10278;DHT22;5184;51.376;7.148;2022-10-16T11:21:00;17.50;1.00
10278;DHT22;5184;51.376;7.148;2022-10-16T11:23:29;17.50;1.00
10278;DHT22;5184;51.376;7.148;2022-10-16T11:25:56;17.50;1.00
10278;DHT22;5184;51.376;7.148;2022-10-16T11:28:24;17.40;79.50
10278;DHT22;5184;51.376;7.148;2022-10-16T11:30:55;17.30;59.50
10278;DHT22;5184;51.376;7.148;2022-10-16T11:33:25;17.40;1.00
10278;DHT22;5184;51.376;7.148;2022-10-16T11:36:16;17.50;1.00
10278;DHT22;5184;51.376;7.148;2022-10-16T11:38:54;17.40;1.00
10278;DHT22;5184;51.376;7.148;2022-10-16T11:41:22;17.50;1.00
10278;DHT22;5184;51.376;7.148;2022-10-16T11:43:51;17.40;1.00
10278;DHT22;5184;51.376;7.148;2022-10-16T11:46:17;17.50;1.00
10278;DHT22;5184;51.376;7.148;2022-10-16T11:48:46;17.50;1.00
10278;DHT22;5184;51.376;7.148;2022-10-16T11:51:25;17.50;52.10
10278;DHT22;5184;51.376;7.148;2022-10-16T11:54:04;16.10;1.00
10278;DHT22;5184;51.376;7.148;2022-10-16T11:56:29;17.60;1.00
10278;DHT22;5184;51.376;7.148;2022-10-16T11:59:00;17.60;1.00
10278;DHT22;5184;51.376;7.148;2022-10-16T12:01:31;17.70;1.00
10278;DHT22;5184;51.376;7.148;2022-10-16T12:04:02;17.80;1.00
10278;DHT22;5184;51.376;7.148;2022-10-16T12:06:34;17.90;1.00
10278;DHT22;5184;51.376;7.148;2022-10-16T12:08:58;17.90;99.90
10278;DHT22;5184;51.376;7.148;2022-10-16T12:11:41;17.70;99.90
10278;DHT22;5184;51.376;7.148;2022-10-16T12:14:20;17.60;99.90
10278;DHT22;5184;51.376;7.148;2022-10-16T12:16:52;17.60;99.90
10278;DHT22;5184;51.376;7.148;2022-10-16T12:19:20;17.60;99.90
10278;DHT22;5184;51.376;7.148;2022-10-16T12:21:45;17.80;99.90
10278;DHT22;5184;51.376;7.148;2022-10-16T12:24:21;17.90;1.00
10278;DHT22;5184;51.376;7.148;2022-10-16T12:26:46;17.90;99.90
10278;DHT22;5184;51.376;7.148;2022-10-16T12:29:14;17.80;13.30
10278;DHT22;5184;51.376;7.148;2022-10-16T12:31:43;17.70;82.50
10278;DHT22;5184;51.376;7.148;2022-10-16T12:34:19;17.80;99.90
10278;DHT22;5184;51.376;7.148;2022-10-16T12:36:41;18.20;1.00
10278;DHT22;5184;51.376;7.148;2022-10-16T12:39:16;18.20;1.00
10278;DHT22;5184;51.376;7.148;2022-10-16T12:41:35;18.40;1.00
10278;DHT22;5184;51.376;7.148;2022-10-16T12:44:01;18.50;1.00
10278;DHT22;5184;51.376;7.148;2022-10-16T12:46:39;18.70;1.00
10278;DHT22;5184;51.376;7.148;2022-10-16T12:51:37;18.80;1.00
10278;DHT22;5184;51.376;7.148;2022-10-16T12:54:12;18.80;99.90
10278;DHT22;5184;51.376;7.148;2022-10-16T12:56:46;18.80;99.90
10278;DHT22;5184;51.376;7.148;2022-10-16T13:02:23;18.50;99.90
10278;DHT22;5184;51.376;7.148;2022-10-16T13:07:43;18.40;99.90
10278;DHT22;5184;51.376;7.148;2022-10-16T13:13:06;18.40;1.00
10278;DHT22;5184;51.376;7.148;2022-10-16T13:15:40;18.40;99.90
10278;DHT22;5184;51.376;7.148;2022-10-16T13:18:16;18.50;1.00
10278;DHT22;5184;51.376;7.148;2022-10-16T13:20:51;18.60;1.00
10278;DHT22;5184;51.376;7.148;2022-10-16T13:23:15;18.70;1.00
10278;DHT22;5184;51.376;7.148;2022-10-16T13:25:54;18.60;1.00
10278;DHT22;5184;51.376;7.148;2022-10-16T13:28:15;18.60;1.00
10278;DHT22;5184;51.376;7.148;2022-10-16T13:30:43;18.40;1.00
10278;DHT22;5184;51.376;7.148;2022-10-16T13:33:14;18.30;1.00
10278;DHT22;5184;51.376;7.148;2022-10-16T13:35:46;18.40;1.00
10278;DHT22;5184;51.376;7.148;2022-10-16T13:38:15;18.70;1.00
10278;DHT22;5184;51.376;7.148;2022-10-16T13:40:48;19.10;1.00
10278;DHT22;5184;51.376;7.148;2022-10-16T13:43:14;19.10;1.00
10278;DHT22;5184;51.376;7.148;2022-10-16T13:45:41;19.50;99.90
10278;DHT22;5184;51.376;7.148;2022-10-16T13:48:09;19.40;99.90
10278;DHT22;5184;51.376;7.148;2022-10-16T13:50:36;19.40;99.90
10278;DHT22;5184;51.376;7.148;2022-10-16T13:53:05;18.10;99.90
10278;DHT22;5184;51.376;7.148;2022-10-16T13:55:31;19.20;99.90
10278;DHT22;5184;51.376;7.148;2022-10-16T13:58:05;19.00;99.90
10278;DHT22;5184;51.376;7.148;2022-10-16T14:00:31;18.90;99.90
10278;DHT22;5184;51.376;7.148;2022-10-16T14:03:01;18.80;1.00
10278;DHT22;5184;51.376;7.148;2022-10-16T14:05:25;18.80;1.00
10278;DHT22;5184;51.376;7.148;2022-10-16T14:07:51;20.60;1.00
10278;DHT22;5184;51.376;7.148;2022-10-16T14:10:29;19.00;1.00
10278;DHT22;5184;51.376;7.148;2022-10-16T14:13:01;19.00;1.00
10278;DHT22;5184;51.376;7.148;2022-10-16T14:15:26;18.90;1.00
10278;DHT22;5184;51.376;7.148;2022-10-16T14:17:53;19.00;1.00
10278;DHT22;5184;51.376;7.148;2022-10-16T14:20:20;19.10;1.00
10278;DHT22;5184;51.376;7.148;2022-10-16T14:22:46;19.20;1.00
10278;DHT22;5184;51.376;7.148;2022-10-16T14:25:25;19.00;99.90
10278;DHT22;5184;51.376;7.148;2022-10-16T14:28:01;18.80;1.00
10278;DHT22;5184;51.376;7.148;2022-10-16T14:30:27;18.60;1.00
10278;DHT22;5184;51.376;7.148;2022-10-16T14:32:58;18.50;1.00
10278;DHT22;5184;51.376;7.148;2022-10-16T14:35:24;18.50;1.00
10278;DHT22;5184;51.376;7.148;2022-10-16T14:37:51;18.40;1.00
10278;DHT22;5184;51.376;7.148;2022-10-16T14:40:18;18.40;20.20
10278;DHT22;5184;51.376;7.148;2022-10-16T14:42:45;18.40;14.00
10278;DHT22;5184;51.376;7.148;2022-10-16T14:45:11;18.50;99.90
10278;DHT22;5184;51.376;7.148;2022-10-16T14:47:45;18.50;1.00
10278;DHT22;5184;51.376;7.148;2022-10-16T14:50:07;18.50;1.00
10278;DHT22;5184;51.376;7.148;2022-10-16T14:52:31;18.60;99.90
10278;DHT22;5184;51.376;7.148;2022-10-16T14:54:58;18.60;1.00
10278;DHT22;5184;51.376;7.148;2022-10-16T14:57:26;18.60;99.90
10278;DHT22;5184;51.376;7.148;2022-10-16T14:59:51;18.50;99.90
10278;DHT22;5184;51.376;7.148;2022-10-16T15:02:35;18.40;99.90
10278;DHT22;5184;51.376;7.148;2022-10-16T15:05:13;18.40;99.90
10278;DHT22;5184;51.376;7.148;2022-10-16T15:07:38;18.40;1.00
10278;DHT22;5184;51.376;7.148;2022-10-16T15:10:06;18.20;1.00
10278;DHT22;5184;51.376;7.148;2022-10-16T15:12:32;18.20;1.00
10278;DHT22;5184;51.376;7.148;2022-10-16T15:14:59;18.20;1.00
10278;DHT22;5184;51.376;7.148;2022-10-16T15:17:25;18.10;99.90
10278;DHT22;5184;51.376;7.148;2022-10-16T15:19:53;17.40;99.90
10278;DHT22;5184;51.376;7.148;2022-10-16T15:22:20;17.90;99.90
10278;DHT22;5184;51.376;7.148;2022-10-16T15:24:48;17.80;1.00
10278;DHT22;5184;51.376;7.148;2022-10-16T15:27:15;17.70;1.00
10278;DHT22;5184;51.376;7.148;2022-10-16T15:29:41;17.70;1.00
10278;DHT22;5184;51.376;7.148;2022-10-16T15:32:09;17.70;81.20
10278;DHT22;5184;51.376;7.148;2022-10-16T15:34:35;17.60;99.90
10278;DHT22;5184;51.376;7.148;2022-10-16T15:37:03;17.50;99.90
10278;DHT22;5184;51.376;7.148;2022-10-16T15:39:29;17.50;99.90
10278;DHT22;5184;51.376;7.148;2022-10-16T15:41:55;17.40;1.00
10278;DHT22;5184;51.376;7.148;2022-10-16T15:44:22;17.30;1.00
10278;DHT22;5184;51.376;7.148;2022-10-16T15:46:49;17.30;1.00
10278;DHT22;5184;51.376;7.148;2022-10-16T15:49:16;17.20;1.00
10278;DHT22;5184;51.376;7.148;2022-10-16T15:51:44;17.10;99.90
10278;DHT22;5184;51.376;7.148;2022-10-16T15:54:11;17.10;99.90
10278;DHT22;5184;51.376;7.148;2022-10-16T15:56:37;17.10;99.90
10278;DHT22;5184;51.376;7.148;2022-10-16T15:59:04;17.10;1.00
10278;DHT22;5184;51.376;7.148;2022-10-16T16:01:33;17.00;26.10
10278;DHT22;5184;51.376;7.148;2022-10-16T16:03:59;16.90;99.90
10278;DHT22;5184;51.376;7.148;2022-10-16T16:06:27;16.90;99.90
10278;DHT22;5184;51.376;7.148;2022-10-16T16:08:54;16.80;99.90
10278;DHT22;5184;51.376;7.148;2022-10-16T16:11:21;16.80;99.90
10278;DHT22;5184;51.376;7.148;2022-10-16T16:13:47;16.80;99.90
10278;DHT22;5184;51.376;7.148;2022-10-16T16:16:15;16.70;1.00
10278;DHT22;5184;51.376;7.148;2022-10-16T16:18:41;16.60;57.30
10278;DHT22;5184;51.376;7.148;2022-10-16T16:21:07;16.50;99.90
10278;DHT22;5184;51.376;7.148;2022-10-16T16:23:34;16.40;99.90
10278;DHT22;5184;51.376;7.148;2022-10-16T16:26:08;15.40;99.90
10278;DHT22;5184;51.376;7.148;2022-10-16T16:28:33;16.40;99.90
10278;DHT22;5184;51.376;7.148;2022-10-16T16:30:59;16.30;99.90
10278;DHT22;5184;51.376;7.148;2022-10-16T16:33:26;16.30;99.90